createdAt,value
2022-10-08T00:00:37.225Z,13.76
2022-10-08T00:03:10.687Z,13.81
2022-10-08T00:05:44.466Z,13.84
2022-10-08T00:08:18.064Z,13.87
2022-10-08T00:10:54.766Z,13.90
2022-10-08T00:13:40.940Z,13.93
2022-10-08T00:16:19.099Z,13.94
2022-10-08T00:18:54.728Z,13.95
2022-10-08T00:21:30.000Z,13.93
2022-10-08T00:24:05.108Z,13.93
2022-10-08T00:26:43.634Z,13.93
2022-10-08T00:29:20.822Z,13.92
2022-10-08T00:31:55.744Z,13.91
2022-10-08T00:34:30.022Z,13.90
2022-10-08T00:37:03.553Z,13.89
2022-10-08T00:39:37.130Z,13.88
2022-10-08T00:42:12.907Z,13.87
2022-10-08T00:44:58.516Z,13.87
2022-10-08T00:47:46.296Z,13.84
2022-10-08T00:50:23.806Z,13.80
2022-10-08T00:53:01.496Z,13.77
2022-10-08T00:55:39.973Z,13.78
2022-10-08T00:58:19.476Z,13.79
2022-10-08T01:00:53.559Z,13.79
2022-10-08T01:03:28.538Z,13.78
2022-10-08T01:06:14.360Z,13.80
2022-10-08T01:08:56.019Z,13.81
2022-10-08T01:11:40.380Z,13.85
2022-10-08T01:14:24.409Z,13.88
2022-10-08T01:17:02.998Z,14.02
2022-10-08T01:20:04.997Z,13.98
2022-10-08T01:22:56.003Z,13.95
2022-10-08T01:25:38.532Z,13.95
2022-10-08T01:28:21.223Z,13.91
2022-10-08T01:30:59.581Z,13.87
2022-10-08T01:33:39.454Z,13.85
2022-10-08T01:36:18.678Z,13.79
2022-10-08T01:38:56.024Z,13.76
2022-10-08T01:41:32.260Z,13.71
2022-10-08T01:44:12.705Z,13.64
2022-10-08T01:46:49.155Z,13.59
2022-10-08T01:49:26.899Z,13.55
2022-10-08T01:52:07.960Z,13.52
2022-10-08T01:54:45.883Z,13.47
2022-10-08T01:57:19.522Z,13.44
2022-10-08T01:59:56.574Z,13.52
2022-10-08T02:02:30.710Z,13.38
2022-10-08T02:05:06.345Z,13.34
2022-10-08T02:07:42.651Z,13.31
2022-10-08T02:10:18.127Z,13.29
2022-10-08T02:12:51.597Z,13.26
2022-10-08T02:15:35.909Z,13.26
2022-10-08T02:18:15.608Z,13.26
2022-10-08T02:20:54.482Z,13.25
2022-10-08T02:23:32.578Z,13.26
2022-10-08T02:26:10.510Z,13.28
2022-10-08T02:28:51.299Z,13.32
2022-10-08T02:31:32.402Z,13.37
2022-10-08T02:34:09.233Z,13.41
2022-10-08T02:36:46.874Z,13.46
2022-10-08T02:39:23.203Z,13.50
2022-10-08T02:42:01.348Z,13.53
2022-10-08T02:44:38.357Z,13.57
2022-10-08T02:47:19.170Z,13.61
2022-10-08T02:49:56.278Z,13.66
2022-10-08T02:52:37.035Z,13.71
2022-10-08T02:55:20.727Z,13.75
2022-10-08T02:58:00.800Z,13.78
2022-10-08T03:00:38.237Z,13.81
2022-10-08T03:03:15.172Z,13.85
2022-10-08T03:05:52.749Z,13.86
2022-10-08T03:08:27.480Z,13.91
2022-10-08T03:11:01.265Z,13.94
2022-10-08T03:13:40.680Z,13.98
2022-10-08T03:16:19.621Z,13.98
2022-10-08T03:18:59.159Z,14.01
2022-10-08T03:21:39.525Z,14.05
2022-10-08T03:24:15.260Z,14.07
2022-10-08T03:26:48.846Z,14.10
2022-10-08T03:29:22.729Z,14.14
2022-10-08T03:31:56.359Z,14.16
2022-10-08T03:34:31.280Z,14.19
2022-10-08T03:37:05.336Z,14.20
2022-10-08T03:39:38.901Z,14.23
2022-10-08T03:42:12.227Z,14.35
2022-10-08T03:44:45.664Z,14.26
2022-10-08T03:47:19.198Z,14.25
2022-10-08T03:49:54.211Z,14.23
2022-10-08T03:52:27.681Z,14.22
2022-10-08T03:55:01.209Z,14.22
2022-10-08T03:57:35.111Z,14.20
2022-10-08T04:00:10.104Z,14.21
2022-10-08T04:02:43.739Z,14.19
2022-10-08T04:05:18.472Z,14.29
2022-10-08T04:07:51.969Z,14.20
2022-10-08T04:10:25.594Z,14.18
2022-10-08T04:12:59.071Z,14.20
2022-10-08T04:15:32.699Z,14.19
2022-10-08T04:18:07.287Z,14.30
2022-10-08T04:20:42.571Z,14.16
2022-10-08T04:23:16.123Z,14.15
2022-10-08T04:25:53.519Z,14.12
2022-10-08T04:28:27.510Z,14.09
2022-10-08T04:31:02.857Z,14.08
2022-10-08T04:33:37.593Z,14.06
2022-10-08T04:36:14.455Z,14.05
2022-10-08T04:38:48.634Z,14.06
2022-10-08T04:41:24.172Z,14.06
2022-10-08T04:44:02.114Z,14.07
2022-10-08T04:46:35.683Z,14.07
2022-10-08T04:49:08.897Z,14.19
2022-10-08T04:51:44.004Z,14.09
2022-10-08T04:54:17.617Z,14.10
2022-10-08T04:56:50.900Z,14.22
2022-10-08T04:59:24.413Z,14.13
2022-10-08T05:01:58.198Z,14.15
2022-10-08T05:04:31.777Z,14.20
2022-10-08T05:07:06.690Z,14.21
2022-10-08T05:09:40.272Z,14.26
2022-10-08T05:12:13.784Z,14.29
2022-10-08T05:14:47.374Z,14.33
2022-10-08T05:17:20.898Z,14.35
2022-10-08T05:19:54.440Z,14.39
2022-10-08T05:22:29.372Z,14.40
2022-10-08T05:25:02.833Z,14.41
2022-10-08T05:27:36.836Z,14.46
2022-10-08T05:30:11.343Z,14.48
2022-10-08T05:32:45.714Z,14.51
2022-10-08T05:35:19.668Z,14.54
2022-10-08T05:37:54.250Z,14.69
2022-10-08T05:40:29.729Z,14.63
2022-10-08T05:43:03.201Z,14.65
2022-10-08T05:45:36.807Z,14.69
2022-10-08T05:48:10.393Z,14.72
2022-10-08T05:50:43.643Z,14.91
2022-10-08T05:53:18.528Z,14.83
2022-10-08T05:56:01.294Z,14.86
2022-10-08T05:58:35.573Z,14.88
2022-10-08T06:01:12.183Z,14.91
2022-10-08T06:03:50.149Z,14.97
2022-10-08T06:06:24.601Z,15.00
2022-10-08T06:09:02.147Z,15.01
2022-10-08T06:11:38.389Z,15.02
2022-10-08T06:14:13.336Z,15.05
2022-10-08T06:16:47.243Z,15.08
2022-10-08T06:19:21.102Z,15.13
2022-10-08T06:21:54.704Z,15.16
2022-10-08T06:24:29.901Z,15.19
2022-10-08T06:27:03.504Z,15.22
2022-10-08T06:29:37.091Z,15.26
2022-10-08T06:32:10.699Z,15.28
2022-10-08T06:34:44.272Z,15.31
2022-10-08T06:37:17.738Z,15.37
2022-10-08T06:39:52.612Z,15.42
2022-10-08T06:42:26.088Z,15.44
2022-10-08T06:45:02.245Z,15.50
2022-10-08T06:47:36.035Z,15.57
2022-10-08T06:50:09.915Z,15.61
2022-10-08T06:52:44.944Z,15.67
2022-10-08T06:55:20.068Z,15.71
2022-10-08T06:57:53.513Z,15.73
2022-10-08T07:00:27.364Z,15.80
2022-10-08T07:03:00.919Z,15.88
2022-10-08T07:05:34.662Z,16.07
2022-10-08T07:08:08.116Z,16.05
2022-10-08T07:10:43.053Z,16.08
2022-10-08T07:13:16.506Z,16.15
2022-10-08T07:15:49.962Z,16.23
2022-10-08T07:18:23.403Z,16.27
2022-10-08T07:20:57.193Z,16.30
2022-10-08T07:23:30.872Z,16.33
2022-10-08T07:26:07.596Z,16.40
2022-10-08T07:28:42.557Z,16.45
2022-10-08T07:31:19.859Z,16.50
2022-10-08T07:33:54.271Z,16.56
2022-10-08T07:36:29.372Z,16.63
2022-10-08T07:39:05.055Z,16.66
2022-10-08T07:41:40.043Z,16.71
2022-10-08T07:44:14.683Z,16.79
2022-10-08T07:46:49.913Z,16.86
2022-10-08T07:49:23.326Z,16.98
2022-10-08T07:51:56.782Z,17.12
2022-10-08T07:54:30.299Z,17.32
2022-10-08T07:57:05.190Z,17.70
2022-10-08T07:59:39.109Z,17.98
2022-10-08T08:02:12.775Z,18.15
2022-10-08T08:04:46.341Z,18.27
2022-10-08T08:07:19.896Z,18.39
2022-10-08T08:09:53.029Z,18.60
2022-10-08T08:12:27.989Z,18.71
2022-10-08T08:15:01.509Z,19.05
2022-10-08T08:17:35.732Z,20.38
2022-10-08T08:20:10.586Z,21.53
2022-10-08T08:22:44.552Z,22.95
2022-10-08T08:25:18.298Z,24.20
2022-10-08T08:27:53.147Z,25.43
2022-10-08T08:30:26.662Z,26.61
2022-10-08T08:33:00.145Z,27.24
2022-10-08T08:35:33.567Z,27.54
2022-10-08T08:38:07.056Z,27.43
2022-10-08T08:40:40.502Z,27.01
2022-10-08T08:43:15.450Z,26.76
2022-10-08T08:45:49.948Z,26.25
2022-10-08T08:48:26.898Z,25.66
2022-10-08T08:51:01.081Z,25.27
2022-10-08T08:53:35.564Z,24.89
2022-10-08T08:56:14.707Z,24.81
2022-10-08T08:58:52.755Z,24.73
2022-10-08T09:01:31.105Z,24.50
2022-10-08T09:04:17.731Z,24.58
2022-10-08T09:06:53.691Z,25.59
2022-10-08T09:09:33.477Z,26.62
2022-10-08T09:12:20.753Z,27.85
2022-10-08T09:15:00.294Z,28.24
2022-10-08T09:17:35.467Z,28.29
2022-10-08T09:20:09.538Z,28.72
2022-10-08T09:22:43.283Z,28.28
2022-10-08T09:25:19.043Z,28.51
2022-10-08T09:27:55.701Z,29.22
2022-10-08T09:30:37.660Z,29.62
2022-10-08T09:33:22.983Z,30.30
2022-10-08T09:35:56.864Z,30.47
2022-10-08T09:38:36.386Z,31.05
2022-10-08T09:41:19.474Z,31.87
2022-10-08T09:44:12.598Z,32.37
2022-10-08T09:46:48.697Z,32.74
2022-10-08T09:49:32.416Z,33.06
2022-10-08T09:52:16.921Z,33.39
2022-10-08T09:54:58.592Z,33.80
2022-10-08T09:57:34.681Z,33.72
2022-10-08T10:00:24.526Z,34.27
2022-10-08T10:03:01.346Z,34.82
2022-10-08T10:05:37.431Z,35.39
2022-10-08T10:08:48.678Z,36.15
2022-10-08T10:11:39.446Z,36.80
2022-10-08T10:14:21.661Z,37.07
2022-10-08T10:17:02.763Z,35.63
2022-10-08T10:19:45.392Z,34.00
2022-10-08T10:22:24.611Z,32.31
2022-10-08T10:25:05.724Z,31.10
2022-10-08T10:27:45.350Z,29.94
2022-10-08T10:30:21.606Z,29.55
2022-10-08T10:32:59.831Z,28.73
2022-10-08T10:35:39.284Z,28.13
2022-10-08T10:38:17.781Z,28.11
2022-10-08T10:41:03.493Z,29.37
2022-10-08T10:43:46.855Z,30.98
2022-10-08T10:46:27.351Z,32.54
2022-10-08T10:49:01.320Z,33.46
2022-10-08T10:51:51.007Z,33.32
2022-10-08T10:54:50.076Z,32.64
2022-10-08T10:57:36.723Z,31.68
2022-10-08T11:00:16.782Z,30.45
2022-10-08T11:02:58.679Z,29.38
2022-10-08T11:05:34.341Z,28.48
2022-10-08T11:08:20.432Z,27.69
2022-10-08T11:11:07.394Z,27.01
2022-10-08T11:13:59.604Z,26.85
2022-10-08T11:16:45.719Z,27.91
2022-10-08T11:19:34.660Z,28.41
2022-10-08T11:22:14.120Z,28.34
2022-10-08T11:24:58.297Z,28.12
2022-10-08T11:27:43.908Z,27.69
2022-10-08T11:30:21.331Z,27.24
2022-10-08T11:32:57.892Z,26.85
2022-10-08T11:35:36.364Z,27.07
2022-10-08T11:38:17.001Z,28.50
2022-10-08T11:40:57.161Z,29.69
2022-10-08T11:43:38.270Z,29.72
2022-10-08T11:46:22.984Z,30.42
2022-10-08T11:48:57.987Z,31.24
2022-10-08T11:51:42.271Z,32.40
2022-10-08T11:54:30.910Z,33.33
2022-10-08T12:00:46.196Z,34.60
2022-10-08T12:03:25.054Z,33.80
2022-10-08T12:06:00.755Z,32.91
2022-10-08T12:08:55.629Z,32.05
2022-10-08T12:11:55.488Z,30.83
2022-10-08T12:14:45.797Z,29.63
2022-10-08T12:17:19.635Z,28.67
2022-10-08T12:20:06.529Z,28.13
2022-10-08T12:22:44.428Z,28.18
2022-10-08T12:25:44.281Z,27.88
2022-10-08T12:28:50.795Z,27.80
2022-10-08T12:31:40.093Z,27.77
2022-10-08T12:34:18.585Z,27.45
2022-10-08T12:37:03.599Z,27.28
2022-10-08T12:39:42.796Z,26.85
2022-10-08T12:42:25.384Z,26.34
2022-10-08T12:45:17.205Z,26.09
2022-10-08T12:48:01.481Z,26.15
2022-10-08T12:50:45.586Z,26.04
2022-10-08T12:53:22.453Z,25.90
2022-10-08T12:55:58.304Z,25.77
2022-10-08T12:58:35.453Z,25.54
2022-10-08T13:01:08.999Z,25.29
2022-10-08T13:03:43.978Z,25.04
2022-10-08T13:06:29.358Z,24.73
2022-10-08T13:09:31.226Z,24.34
2022-10-08T13:12:06.368Z,23.99
2022-10-08T13:14:40.687Z,23.75
2022-10-08T13:17:30.443Z,23.55
2022-10-08T13:20:18.940Z,23.37
2022-10-08T13:25:51.342Z,23.07
2022-10-08T13:28:48.406Z,23.14
2022-10-08T13:31:24.975Z,23.40
2022-10-08T13:34:04.707Z,23.69
2022-10-08T13:36:39.594Z,23.84
2022-10-08T13:39:21.708Z,23.91
2022-10-08T13:41:58.111Z,23.92
2022-10-08T13:44:33.485Z,23.90
2022-10-08T13:47:07.249Z,23.85
2022-10-08T13:49:41.257Z,23.74
2022-10-08T13:52:18.267Z,23.63
2022-10-08T13:54:55.177Z,23.53
2022-10-08T13:57:28.647Z,23.40
2022-10-08T14:00:21.165Z,23.26
2022-10-08T14:02:54.692Z,23.08
2022-10-08T14:05:30.433Z,22.90
2022-10-08T14:08:09.367Z,22.75
2022-10-08T14:10:45.056Z,22.60
2022-10-08T14:13:21.146Z,22.51
2022-10-08T14:15:54.754Z,22.44
2022-10-08T14:18:28.253Z,22.36
2022-10-08T14:21:01.765Z,22.23
2022-10-08T14:23:38.822Z,22.10
2022-10-08T14:26:20.120Z,22.00
2022-10-08T14:28:57.540Z,21.92
2022-10-08T14:31:31.330Z,21.83
2022-10-08T14:34:04.942Z,21.77
2022-10-08T14:36:43.166Z,21.69
2022-10-08T14:39:18.016Z,21.59
2022-10-08T14:41:51.469Z,21.51
2022-10-08T14:44:25.002Z,21.41
2022-10-08T14:46:58.441Z,21.29
2022-10-08T14:49:31.996Z,21.22
2022-10-08T14:52:07.408Z,21.12
2022-10-08T14:54:45.602Z,21.07
2022-10-08T14:57:19.127Z,20.98
2022-10-08T14:59:52.607Z,20.92
2022-10-08T15:02:26.197Z,20.90
2022-10-08T15:04:59.791Z,20.89
2022-10-08T15:07:41.680Z,20.87
2022-10-08T15:10:16.593Z,20.81
2022-10-08T15:12:50.389Z,20.77
2022-10-08T15:15:24.127Z,20.71
2022-10-08T15:17:57.226Z,20.76
2022-10-08T15:20:34.349Z,20.62
2022-10-08T15:23:11.018Z,20.56
2022-10-08T15:25:45.859Z,20.47
2022-10-08T15:28:19.323Z,20.39
2022-10-08T15:31:02.324Z,20.29
2022-10-08T15:33:39.438Z,20.15
2022-10-08T15:36:20.590Z,19.99
2022-10-08T15:38:59.225Z,19.83
2022-10-08T15:41:37.630Z,19.70
2022-10-08T15:44:18.186Z,19.54
2022-10-08T15:46:59.332Z,19.44
2022-10-08T15:49:34.360Z,19.35
2022-10-08T15:52:09.578Z,19.26
2022-10-08T15:54:43.781Z,19.16
2022-10-08T15:57:20.030Z,19.05
2022-10-08T15:59:53.816Z,18.95
2022-10-08T16:02:27.369Z,18.88
2022-10-08T16:05:00.872Z,18.84
2022-10-08T16:07:33.956Z,18.88
2022-10-08T16:10:08.681Z,18.73
2022-10-08T16:12:43.665Z,18.63
2022-10-08T16:15:17.207Z,18.55
2022-10-08T16:17:52.058Z,18.47
2022-10-08T16:20:28.230Z,18.41
2022-10-08T16:23:01.346Z,18.45
2022-10-08T16:25:36.280Z,18.35
2022-10-08T16:28:11.254Z,18.30
2022-10-08T16:30:44.819Z,18.25
2022-10-08T16:33:18.457Z,18.22
2022-10-08T16:35:52.117Z,18.19
2022-10-08T16:38:25.653Z,18.18
2022-10-08T16:41:09.661Z,18.25
2022-10-08T16:43:47.460Z,18.09
2022-10-08T16:46:23.172Z,18.06
2022-10-08T16:48:59.342Z,18.04
2022-10-08T16:51:35.448Z,18.02
2022-10-08T16:54:12.186Z,17.97
2022-10-08T16:56:46.768Z,17.94
2022-10-08T16:59:23.765Z,17.89
2022-10-08T17:01:58.825Z,17.83
2022-10-08T17:04:39.168Z,17.80
2022-10-08T17:07:12.606Z,17.77
2022-10-08T17:09:46.200Z,17.74
2022-10-08T17:12:22.110Z,17.71
2022-10-08T17:14:58.786Z,17.68
2022-10-08T17:17:36.528Z,17.66
2022-10-08T17:20:11.396Z,17.63
2022-10-08T17:22:44.908Z,17.60
2022-10-08T17:25:18.242Z,17.71
2022-10-08T17:27:54.377Z,17.63
2022-10-08T17:30:34.600Z,17.64
2022-10-08T17:33:13.523Z,17.64
2022-10-08T17:35:47.091Z,17.65
2022-10-08T17:38:20.240Z,17.76
2022-10-08T17:40:56.048Z,17.69
2022-10-08T17:43:32.595Z,17.67
2022-10-08T17:46:15.723Z,17.67
2022-10-08T17:48:49.528Z,17.65
2022-10-08T17:51:25.399Z,17.63
2022-10-08T17:54:00.098Z,17.61
2022-10-08T17:56:34.120Z,17.59
2022-10-08T17:59:08.037Z,17.54
2022-10-08T18:01:46.067Z,17.52
2022-10-08T18:04:20.599Z,17.49
2022-10-08T18:06:59.842Z,17.47
2022-10-08T18:09:36.254Z,17.47
2022-10-08T18:12:13.026Z,17.45
2022-10-08T18:14:46.572Z,17.45
2022-10-08T18:17:21.618Z,17.43
2022-10-08T18:19:55.128Z,17.41
2022-10-08T18:22:28.327Z,17.50
2022-10-08T18:25:02.643Z,17.37
2022-10-08T18:27:36.160Z,17.33
2022-10-08T18:30:11.470Z,17.28
2022-10-08T18:32:46.680Z,17.27
2022-10-08T18:35:22.833Z,17.24
2022-10-08T18:37:56.972Z,17.22
2022-10-08T18:40:31.110Z,17.19
2022-10-08T18:43:04.719Z,17.17
2022-10-08T18:45:38.021Z,17.25
2022-10-08T18:48:13.064Z,17.13
2022-10-08T18:50:46.590Z,17.06
2022-10-08T18:53:20.303Z,16.99
2022-10-08T18:55:53.866Z,17.07
2022-10-08T18:58:27.758Z,16.94
2022-10-08T19:01:01.524Z,16.90
2022-10-08T19:03:36.474Z,16.85
2022-10-08T19:06:12.609Z,16.83
2022-10-08T19:08:46.969Z,16.78
2022-10-08T19:11:24.972Z,16.76
2022-10-08T19:13:58.485Z,16.73
2022-10-08T19:16:31.871Z,16.80
2022-10-08T19:19:13.536Z,16.65
2022-10-08T19:21:48.432Z,16.60
2022-10-08T19:24:31.577Z,16.57
2022-10-08T19:27:05.305Z,16.56
2022-10-08T19:29:41.385Z,16.53
2022-10-08T19:32:14.942Z,16.50
2022-10-08T19:34:49.612Z,16.55
2022-10-08T19:37:23.402Z,16.39
2022-10-08T19:39:56.949Z,16.30
2022-10-08T19:42:30.212Z,16.36
2022-10-08T19:45:03.679Z,16.23
2022-10-08T19:47:37.168Z,16.30
2022-10-08T19:50:12.416Z,16.17
2022-10-08T19:52:50.964Z,16.13
2022-10-08T19:55:25.276Z,16.09
2022-10-08T19:58:01.514Z,16.07
2022-10-08T20:00:37.540Z,16.06
2022-10-08T20:03:13.763Z,16.04
2022-10-08T20:05:48.728Z,16.02
2022-10-08T20:08:23.022Z,16.04
2022-10-08T20:11:00.860Z,16.03
2022-10-08T20:13:35.998Z,16.02
2022-10-08T20:16:11.440Z,15.98
2022-10-08T20:18:51.683Z,15.96
2022-10-08T20:21:27.332Z,15.92
2022-10-08T20:24:01.315Z,15.87
2022-10-08T20:26:36.843Z,15.83
2022-10-08T20:29:12.665Z,15.79
2022-10-08T20:34:42.492Z,15.69
2022-10-08T20:37:17.375Z,15.64
2022-10-08T20:54:08.544Z,15.40
2022-10-08T20:57:19.566Z,15.40
2022-10-08T20:59:53.040Z,15.30
2022-10-08T21:02:26.647Z,15.28
2022-10-08T21:04:59.878Z,15.37
2022-10-08T21:07:33.549Z,15.27
2022-10-08T21:10:09.298Z,15.37
2022-10-08T21:12:42.904Z,15.29
2022-10-08T21:15:16.465Z,15.39
2022-10-08T21:17:50.050Z,15.30
2022-10-08T21:20:23.327Z,15.39
2022-10-08T21:22:57.080Z,15.25
2022-10-08T21:25:32.039Z,15.20
2022-10-08T21:28:05.734Z,15.14
2022-10-08T21:30:39.363Z,15.13
2022-10-08T21:33:12.943Z,15.10
2022-10-08T21:35:46.208Z,15.18
2022-10-08T21:38:19.872Z,15.02
2022-10-08T21:40:58.019Z,15.11
2022-10-08T21:43:32.176Z,14.94
2022-10-08T21:46:10.211Z,14.85
2022-10-08T21:48:44.259Z,14.76
2022-10-08T21:51:20.325Z,14.67
2022-10-08T21:53:56.719Z,14.60
2022-10-08T21:56:35.968Z,14.52
2022-10-08T21:59:12.438Z,14.45
2022-10-08T22:01:47.839Z,14.39
2022-10-08T22:04:23.381Z,14.34
2022-10-08T22:07:01.945Z,14.28
2022-10-08T22:09:35.880Z,14.19
2022-10-08T22:12:11.208Z,14.10
2022-10-08T22:14:44.725Z,14.01
2022-10-08T22:17:18.031Z,14.05
2022-10-08T22:19:51.638Z,13.89
2022-10-08T22:22:24.901Z,13.93
2022-10-08T22:24:58.551Z,13.75
2022-10-08T22:27:36.025Z,13.79
2022-10-08T22:30:54.751Z,13.61
2022-10-08T22:33:37.086Z,13.53
2022-10-08T22:36:18.318Z,13.46
2022-10-08T22:38:52.349Z,13.42
2022-10-08T22:41:27.698Z,13.38
2022-10-08T22:44:06.076Z,13.37
2022-10-08T22:46:41.232Z,13.34
2022-10-08T22:49:15.179Z,13.32
2022-10-08T22:51:48.749Z,13.28
2022-10-08T22:54:24.294Z,13.25
2022-10-08T22:56:57.864Z,13.21
2022-10-08T22:59:33.086Z,13.21
2022-10-08T23:02:06.817Z,13.21
2022-10-08T23:04:39.982Z,13.31
2022-10-08T23:07:15.976Z,13.21
2022-10-08T23:09:49.545Z,13.14
2022-10-08T23:12:23.215Z,13.09
2022-10-08T23:15:00.283Z,13.13
2022-10-08T23:17:33.856Z,12.97
2022-10-08T23:20:08.355Z,12.92
2022-10-08T23:22:41.987Z,12.87
2022-10-08T23:25:17.762Z,12.96
2022-10-08T23:27:51.563Z,12.81
2022-10-08T23:30:42.553Z,12.75
2022-10-08T23:33:16.965Z,12.69
2022-10-08T23:35:57.054Z,12.78
2022-10-08T23:38:30.655Z,12.65
2022-10-08T23:41:06.947Z,12.62
2022-10-08T23:43:46.002Z,12.56
2022-10-08T23:46:23.512Z,12.56
2022-10-08T23:48:58.077Z,12.53
2022-10-08T23:51:34.782Z,12.50
2022-10-08T23:54:08.455Z,12.48
2022-10-08T23:56:44.017Z,12.57
2022-10-08T23:59:17.709Z,12.43
